sensor_id;sensor_type;location;lat;lon;timestamp;P1;durP1;ratioP1;P2;durP2;ratioP2
6513;SDS011;3290;47.716;9.070;2024-03-22T00:00:19;4.83;;;3.00;;
6513;SDS011;3290;47.716;9.070;2024-03-22T00:02:44;4.30;;;2.83;;
6513;SDS011;3290;47.716;9.070;2024-03-22T00:05:10;5.57;;;3.17;;
6513;SDS011;3290;47.716;9.070;2024-03-22T00:07:35;6.03;;;3.23;;
6513;SDS011;3290;47.716;9.070;2024-03-22T00:10:01;5.63;;;3.70;;
6513;SDS011;3290;47.716;9.070;2024-03-22T00:12:27;9.00;;;3.30;;
6513;SDS011;3290;47.716;9.070;2024-03-22T00:14:52;8.60;;;4.30;;
6513;SDS011;3290;47.716;9.070;2024-03-22T00:17:19;6.47;;;3.33;;
6513;SDS011;3290;47.716;9.070;2024-03-22T00:19:45;5.30;;;2.93;;
6513;SDS011;3290;47.716;9.070;2024-03-22T00:22:10;6.97;;;3.00;;
6513;SDS011;3290;47.716;9.070;2024-03-22T00:24:35;5.67;;;3.30;;
6513;SDS011;3290;47.716;9.070;2024-03-22T00:27:01;3.27;;;2.57;;
6513;SDS011;3290;47.716;9.070;2024-03-22T00:29:26;8.43;;;3.10;;
6513;SDS011;3290;47.716;9.070;2024-03-22T00:31:51;7.27;;;3.23;;
6513;SDS011;3290;47.716;9.070;2024-03-22T00:34:17;6.23;;;3.60;;
6513;SDS011;3290;47.716;9.070;2024-03-22T00:36:42;4.60;;;2.97;;
6513;SDS011;3290;47.716;9.070;2024-03-22T00:39:07;9.80;;;4.30;;
6513;SDS011;3290;47.716;9.070;2024-03-22T00:41:33;8.40;;;4.10;;
6513;SDS011;3290;47.716;9.070;2024-03-22T00:43:58;8.20;;;3.47;;
6513;SDS011;3290;47.716;9.070;2024-03-22T00:46:23;17.13;;;4.17;;
6513;SDS011;3290;47.716;9.070;2024-03-22T00:48:49;6.07;;;3.67;;
6513;SDS011;3290;47.716;9.070;2024-03-22T00:51:14;7.40;;;3.40;;
6513;SDS011;3290;47.716;9.070;2024-03-22T00:53:39;9.80;;;3.57;;
6513;SDS011;3290;47.716;9.070;2024-03-22T00:56:05;7.20;;;3.13;;
6513;SDS011;3290;47.716;9.070;2024-03-22T00:58:30;4.13;;;3.30;;
6513;SDS011;3290;47.716;9.070;2024-03-22T01:00:56;6.33;;;4.10;;
6513;SDS011;3290;47.716;9.070;2024-03-22T01:03:21;13.77;;;3.73;;
6513;SDS011;3290;47.716;9.070;2024-03-22T01:05:47;9.50;;;3.87;;
6513;SDS011;3290;47.716;9.070;2024-03-22T01:08:12;6.07;;;3.80;;
6513;SDS011;3290;47.716;9.070;2024-03-22T01:10:37;4.00;;;3.60;;
6513;SDS011;3290;47.716;9.070;2024-03-22T01:13:03;5.40;;;3.93;;
6513;SDS011;3290;47.716;9.070;2024-03-22T01:15:28;13.73;;;3.43;;
6513;SDS011;3290;47.716;9.070;2024-03-22T01:17:53;7.53;;;3.67;;
6513;SDS011;3290;47.716;9.070;2024-03-22T01:20:19;6.57;;;3.47;;
6513;SDS011;3290;47.716;9.070;2024-03-22T01:22:45;7.90;;;3.70;;
6513;SDS011;3290;47.716;9.070;2024-03-22T01:25:10;5.00;;;3.63;;
6513;SDS011;3290;47.716;9.070;2024-03-22T01:27:35;4.73;;;4.00;;
6513;SDS011;3290;47.716;9.070;2024-03-22T01:30:01;4.33;;;3.80;;
6513;SDS011;3290;47.716;9.070;2024-03-22T01:32:27;5.93;;;4.00;;
6513;SDS011;3290;47.716;9.070;2024-03-22T01:34:52;3.93;;;3.37;;
6513;SDS011;3290;47.716;9.070;2024-03-22T01:37:17;8.70;;;3.63;;
6513;SDS011;3290;47.716;9.070;2024-03-22T01:39:43;5.93;;;3.90;;
6513;SDS011;3290;47.716;9.070;2024-03-22T01:42:08;6.63;;;4.07;;
6513;SDS011;3290;47.716;9.070;2024-03-22T01:44:33;5.73;;;3.43;;
6513;SDS011;3290;47.716;9.070;2024-03-22T01:46:59;7.87;;;4.43;;
6513;SDS011;3290;47.716;9.070;2024-03-22T01:49:25;6.03;;;3.70;;
6513;SDS011;3290;47.716;9.070;2024-03-22T01:51:50;10.60;;;3.90;;
6513;SDS011;3290;47.716;9.070;2024-03-22T01:54:17;5.90;;;4.00;;
6513;SDS011;3290;47.716;9.070;2024-03-22T01:56:44;9.07;;;4.17;;
6513;SDS011;3290;47.716;9.070;2024-03-22T01:59:09;4.63;;;3.60;;
6513;SDS011;3290;47.716;9.070;2024-03-22T02:01:35;8.73;;;4.27;;
6513;SDS011;3290;47.716;9.070;2024-03-22T02:04:01;12.73;;;3.80;;
6513;SDS011;3290;47.716;9.070;2024-03-22T02:06:27;5.13;;;3.80;;
6513;SDS011;3290;47.716;9.070;2024-03-22T02:08:52;8.30;;;3.43;;
6513;SDS011;3290;47.716;9.070;2024-03-22T02:11:17;11.47;;;4.20;;
6513;SDS011;3290;47.716;9.070;2024-03-22T02:13:43;8.53;;;3.73;;
6513;SDS011;3290;47.716;9.070;2024-03-22T02:16:09;7.20;;;4.10;;
6513;SDS011;3290;47.716;9.070;2024-03-22T02:18:34;6.37;;;3.87;;
6513;SDS011;3290;47.716;9.070;2024-03-22T02:21:00;5.60;;;3.50;;
6513;SDS011;3290;47.716;9.070;2024-03-22T02:25:57;5.07;;;3.80;;
6513;SDS011;3290;47.716;9.070;2024-03-22T02:28:22;12.63;;;3.73;;
6513;SDS011;3290;47.716;9.070;2024-03-22T02:30:48;5.20;;;3.60;;
6513;SDS011;3290;47.716;9.070;2024-03-22T02:33:13;6.30;;;3.80;;
6513;SDS011;3290;47.716;9.070;2024-03-22T02:35:38;4.67;;;3.40;;
6513;SDS011;3290;47.716;9.070;2024-03-22T02:38:03;7.47;;;3.90;;
6513;SDS011;3290;47.716;9.070;2024-03-22T02:40:29;4.73;;;3.80;;
6513;SDS011;3290;47.716;9.070;2024-03-22T02:42:54;20.03;;;4.53;;
6513;SDS011;3290;47.716;9.070;2024-03-22T02:45:19;5.70;;;3.57;;
6513;SDS011;3290;47.716;9.070;2024-03-22T02:47:45;8.10;;;3.70;;
6513;SDS011;3290;47.716;9.070;2024-03-22T02:50:10;12.80;;;4.13;;
6513;SDS011;3290;47.716;9.070;2024-03-22T02:52:35;15.00;;;3.90;;
6513;SDS011;3290;47.716;9.070;2024-03-22T02:55:01;4.50;;;3.60;;
6513;SDS011;3290;47.716;9.070;2024-03-22T02:57:26;6.10;;;3.90;;
6513;SDS011;3290;47.716;9.070;2024-03-22T02:59:51;6.57;;;4.00;;
6513;SDS011;3290;47.716;9.070;2024-03-22T03:02:17;4.43;;;3.70;;
6513;SDS011;3290;47.716;9.070;2024-03-22T03:04:42;6.97;;;3.50;;
6513;SDS011;3290;47.716;9.070;2024-03-22T03:07:07;5.70;;;3.80;;
6513;SDS011;3290;47.716;9.070;2024-03-22T03:09:33;4.93;;;3.30;;
6513;SDS011;3290;47.716;9.070;2024-03-22T03:11:58;5.07;;;3.70;;
6513;SDS011;3290;47.716;9.070;2024-03-22T03:14:23;5.53;;;3.60;;
6513;SDS011;3290;47.716;9.070;2024-03-22T03:16:48;8.60;;;3.97;;
6513;SDS011;3290;47.716;9.070;2024-03-22T03:19:14;16.53;;;4.30;;
6513;SDS011;3290;47.716;9.070;2024-03-22T03:21:39;12.23;;;3.67;;
6513;SDS011;3290;47.716;9.070;2024-03-22T03:24:04;5.23;;;3.77;;
6513;SDS011;3290;47.716;9.070;2024-03-22T03:26:30;8.33;;;3.80;;
6513;SDS011;3290;47.716;9.070;2024-03-22T03:28:55;5.13;;;3.90;;
6513;SDS011;3290;47.716;9.070;2024-03-22T03:31:21;4.50;;;3.67;;
6513;SDS011;3290;47.716;9.070;2024-03-22T03:33:46;5.50;;;4.47;;
6513;SDS011;3290;47.716;9.070;2024-03-22T03:36:11;4.37;;;3.57;;
6513;SDS011;3290;47.716;9.070;2024-03-22T03:38:36;4.53;;;3.37;;
6513;SDS011;3290;47.716;9.070;2024-03-22T03:41:02;4.93;;;3.43;;
6513;SDS011;3290;47.716;9.070;2024-03-22T03:43:28;7.87;;;3.90;;
6513;SDS011;3290;47.716;9.070;2024-03-22T03:45:53;7.30;;;3.57;;
6513;SDS011;3290;47.716;9.070;2024-03-22T03:48:20;3.93;;;3.33;;
6513;SDS011;3290;47.716;9.070;2024-03-22T03:50:50;10.70;;;3.47;;
6513;SDS011;3290;47.716;9.070;2024-03-22T03:53:20;5.97;;;4.33;;
6513;SDS011;3290;47.716;9.070;2024-03-22T03:55:46;7.20;;;4.00;;
6513;SDS011;3290;47.716;9.070;2024-03-22T03:58:11;7.87;;;4.50;;
6513;SDS011;3290;47.716;9.070;2024-03-22T04:00:36;8.60;;;4.57;;
6513;SDS011;3290;47.716;9.070;2024-03-22T04:03:02;6.67;;;3.80;;
6513;SDS011;3290;47.716;9.070;2024-03-22T04:05:27;3.70;;;3.40;;
6513;SDS011;3290;47.716;9.070;2024-03-22T04:07:53;5.83;;;3.90;;
6513;SDS011;3290;47.716;9.070;2024-03-22T04:10:18;7.23;;;3.57;;
6513;SDS011;3290;47.716;9.070;2024-03-22T04:12:44;6.83;;;4.27;;
6513;SDS011;3290;47.716;9.070;2024-03-22T04:15:10;5.23;;;3.90;;
6513;SDS011;3290;47.716;9.070;2024-03-22T04:17:35;5.87;;;3.83;;
6513;SDS011;3290;47.716;9.070;2024-03-22T04:20:01;5.87;;;4.10;;
6513;SDS011;3290;47.716;9.070;2024-03-22T04:22:29;5.93;;;4.07;;
6513;SDS011;3290;47.716;9.070;2024-03-22T04:24:54;8.53;;;4.00;;
6513;SDS011;3290;47.716;9.070;2024-03-22T04:27:20;9.67;;;4.63;;
6513;SDS011;3290;47.716;9.070;2024-03-22T04:29:48;7.70;;;4.30;;
6513;SDS011;3290;47.716;9.070;2024-03-22T04:32:14;7.07;;;4.27;;
6513;SDS011;3290;47.716;9.070;2024-03-22T04:34:42;6.67;;;3.83;;
6513;SDS011;3290;47.716;9.070;2024-03-22T04:37:08;7.07;;;4.10;;
6513;SDS011;3290;47.716;9.070;2024-03-22T04:39:34;10.50;;;4.10;;
6513;SDS011;3290;47.716;9.070;2024-03-22T04:41:59;8.60;;;4.60;;
6513;SDS011;3290;47.716;9.070;2024-03-22T04:44:24;10.10;;;4.37;;
6513;SDS011;3290;47.716;9.070;2024-03-22T04:46:50;12.67;;;5.70;;
6513;SDS011;3290;47.716;9.070;2024-03-22T04:49:15;11.17;;;5.80;;
6513;SDS011;3290;47.716;9.070;2024-03-22T04:51:40;11.83;;;4.50;;
6513;SDS011;3290;47.716;9.070;2024-03-22T04:54:06;9.50;;;4.57;;
6513;SDS011;3290;47.716;9.070;2024-03-22T04:56:31;6.23;;;4.40;;
6513;SDS011;3290;47.716;9.070;2024-03-22T04:58:57;7.73;;;4.57;;
6513;SDS011;3290;47.716;9.070;2024-03-22T05:01:22;5.60;;;4.43;;
6513;SDS011;3290;47.716;9.070;2024-03-22T05:03:48;8.83;;;4.77;;
6513;SDS011;3290;47.716;9.070;2024-03-22T05:06:14;8.77;;;4.77;;
6513;SDS011;3290;47.716;9.070;2024-03-22T05:08:39;12.83;;;5.00;;
6513;SDS011;3290;47.716;9.070;2024-03-22T05:11:06;6.10;;;4.50;;
6513;SDS011;3290;47.716;9.070;2024-03-22T05:13:32;9.53;;;4.60;;
6513;SDS011;3290;47.716;9.070;2024-03-22T05:15:57;18.47;;;4.57;;
6513;SDS011;3290;47.716;9.070;2024-03-22T05:18:23;6.60;;;4.80;;
6513;SDS011;3290;47.716;9.070;2024-03-22T05:20:48;6.47;;;4.37;;
6513;SDS011;3290;47.716;9.070;2024-03-22T05:23:13;16.17;;;4.90;;
6513;SDS011;3290;47.716;9.070;2024-03-22T05:25:41;7.20;;;5.03;;
6513;SDS011;3290;47.716;9.070;2024-03-22T05:28:06;11.10;;;4.63;;
6513;SDS011;3290;47.716;9.070;2024-03-22T05:30:32;9.40;;;4.70;;
6513;SDS011;3290;47.716;9.070;2024-03-22T05:32:58;10.17;;;5.17;;
6513;SDS011;3290;47.716;9.070;2024-03-22T05:35:23;8.03;;;4.67;;
6513;SDS011;3290;47.716;9.070;2024-03-22T05:37:49;6.30;;;5.40;;
6513;SDS011;3290;47.716;9.070;2024-03-22T05:40:14;12.20;;;5.07;;
6513;SDS011;3290;47.716;9.070;2024-03-22T05:42:41;11.43;;;5.60;;
6513;SDS011;3290;47.716;9.070;2024-03-22T05:45:06;6.77;;;5.17;;
6513;SDS011;3290;47.716;9.070;2024-03-22T05:47:31;10.30;;;5.70;;
6513;SDS011;3290;47.716;9.070;2024-03-22T05:49:58;8.70;;;5.80;;
6513;SDS011;3290;47.716;9.070;2024-03-22T05:52:23;10.50;;;5.70;;
6513;SDS011;3290;47.716;9.070;2024-03-22T05:54:49;12.13;;;6.17;;
6513;SDS011;3290;47.716;9.070;2024-03-22T05:57:14;6.90;;;5.57;;
6513;SDS011;3290;47.716;9.070;2024-03-22T05:59:39;8.53;;;6.20;;
6513;SDS011;3290;47.716;9.070;2024-03-22T06:02:05;13.33;;;6.63;;
6513;SDS011;3290;47.716;9.070;2024-03-22T06:04:30;12.63;;;5.60;;
6513;SDS011;3290;47.716;9.070;2024-03-22T06:06:56;9.13;;;5.33;;
6513;SDS011;3290;47.716;9.070;2024-03-22T06:09:24;10.40;;;5.17;;
6513;SDS011;3290;47.716;9.070;2024-03-22T06:12:00;9.53;;;4.50;;
6513;SDS011;3290;47.716;9.070;2024-03-22T06:14:27;17.10;;;5.27;;
6513;SDS011;3290;47.716;9.070;2024-03-22T06:16:52;11.83;;;6.23;;
6513;SDS011;3290;47.716;9.070;2024-03-22T06:19:18;16.80;;;5.60;;
6513;SDS011;3290;47.716;9.070;2024-03-22T06:21:43;7.27;;;4.53;;
6513;SDS011;3290;47.716;9.070;2024-03-22T06:24:08;9.17;;;5.07;;
6513;SDS011;3290;47.716;9.070;2024-03-22T06:26:34;5.80;;;3.90;;
6513;SDS011;3290;47.716;9.070;2024-03-22T06:28:59;7.60;;;5.00;;
6513;SDS011;3290;47.716;9.070;2024-03-22T06:31:24;8.50;;;5.50;;
6513;SDS011;3290;47.716;9.070;2024-03-22T06:33:50;17.60;;;5.33;;
6513;SDS011;3290;47.716;9.070;2024-03-22T06:36:15;7.43;;;4.70;;
6513;SDS011;3290;47.716;9.070;2024-03-22T06:38:41;7.80;;;5.40;;
6513;SDS011;3290;47.716;9.070;2024-03-22T06:41:06;9.00;;;5.10;;
6513;SDS011;3290;47.716;9.070;2024-03-22T06:43:31;11.83;;;5.90;;
6513;SDS011;3290;47.716;9.070;2024-03-22T06:45:56;11.43;;;5.27;;
6513;SDS011;3290;47.716;9.070;2024-03-22T06:48:22;10.33;;;5.10;;
6513;SDS011;3290;47.716;9.070;2024-03-22T06:50:47;8.13;;;5.10;;
6513;SDS011;3290;47.716;9.070;2024-03-22T06:53:12;10.60;;;4.80;;
6513;SDS011;3290;47.716;9.070;2024-03-22T06:55:38;8.03;;;6.10;;
6513;SDS011;3290;47.716;9.070;2024-03-22T06:58:03;10.97;;;5.30;;
6513;SDS011;3290;47.716;9.070;2024-03-22T07:00:29;8.10;;;5.27;;
6513;SDS011;3290;47.716;9.070;2024-03-22T07:02:55;7.30;;;4.57;;
6513;SDS011;3290;47.716;9.070;2024-03-22T07:05:21;9.57;;;4.80;;
6513;SDS011;3290;47.716;9.070;2024-03-22T07:07:47;7.53;;;5.40;;
6513;SDS011;3290;47.716;9.070;2024-03-22T07:10:12;6.70;;;5.37;;
6513;SDS011;3290;47.716;9.070;2024-03-22T07:12:38;9.83;;;5.50;;
6513;SDS011;3290;47.716;9.070;2024-03-22T07:15:04;8.47;;;5.20;;
6513;SDS011;3290;47.716;9.070;2024-03-22T07:17:30;8.80;;;5.07;;
6513;SDS011;3290;47.716;9.070;2024-03-22T07:19:55;9.00;;;6.20;;
6513;SDS011;3290;47.716;9.070;2024-03-22T07:22:22;8.63;;;4.80;;
6513;SDS011;3290;47.716;9.070;2024-03-22T07:24:47;11.20;;;4.83;;
6513;SDS011;3290;47.716;9.070;2024-03-22T07:27:14;6.20;;;5.20;;
6513;SDS011;3290;47.716;9.070;2024-03-22T07:29:42;7.90;;;4.07;;
6513;SDS011;3290;47.716;9.070;2024-03-22T07:32:09;10.87;;;5.07;;
6513;SDS011;3290;47.716;9.070;2024-03-22T07:34:34;15.77;;;5.80;;
6513;SDS011;3290;47.716;9.070;2024-03-22T07:36:59;8.10;;;5.57;;
6513;SDS011;3290;47.716;9.070;2024-03-22T07:39:25;8.00;;;5.20;;
6513;SDS011;3290;47.716;9.070;2024-03-22T07:41:50;6.33;;;5.47;;
6513;SDS011;3290;47.716;9.070;2024-03-22T07:44:16;9.20;;;6.10;;
6513;SDS011;3290;47.716;9.070;2024-03-22T07:46:52;8.53;;;5.47;;
6513;SDS011;3290;47.716;9.070;2024-03-22T07:49:17;8.80;;;4.43;;
6513;SDS011;3290;47.716;9.070;2024-03-22T07:51:43;8.17;;;5.50;;
6513;SDS011;3290;47.716;9.070;2024-03-22T07:54:08;7.30;;;4.70;;
6513;SDS011;3290;47.716;9.070;2024-03-22T07:56:34;5.43;;;4.90;;
6513;SDS011;3290;47.716;9.070;2024-03-22T07:58:59;9.77;;;5.37;;
6513;SDS011;3290;47.716;9.070;2024-03-22T08:01:24;13.30;;;5.00;;
6513;SDS011;3290;47.716;9.070;2024-03-22T08:03:51;6.83;;;5.23;;
6513;SDS011;3290;47.716;9.070;2024-03-22T08:06:16;11.57;;;5.37;;
6513;SDS011;3290;47.716;9.070;2024-03-22T08:08:42;10.63;;;5.30;;
6513;SDS011;3290;47.716;9.070;2024-03-22T08:11:07;9.10;;;5.90;;
6513;SDS011;3290;47.716;9.070;2024-03-22T08:13:32;7.60;;;5.60;;
6513;SDS011;3290;47.716;9.070;2024-03-22T08:15:58;10.40;;;5.73;;
6513;SDS011;3290;47.716;9.070;2024-03-22T08:18:23;15.50;;;5.80;;
6513;SDS011;3290;47.716;9.070;2024-03-22T08:20:48;8.37;;;5.90;;
6513;SDS011;3290;47.716;9.070;2024-03-22T08:23:14;10.40;;;6.53;;
6513;SDS011;3290;47.716;9.070;2024-03-22T08:25:39;14.10;;;6.63;;
6513;SDS011;3290;47.716;9.070;2024-03-22T08:28:04;13.93;;;6.07;;
6513;SDS011;3290;47.716;9.070;2024-03-22T08:30:30;7.93;;;5.53;;
6513;SDS011;3290;47.716;9.070;2024-03-22T08:32:55;9.90;;;6.63;;
6513;SDS011;3290;47.716;9.070;2024-03-22T08:35:20;8.93;;;6.07;;
6513;SDS011;3290;47.716;9.070;2024-03-22T08:37:46;11.07;;;6.00;;
6513;SDS011;3290;47.716;9.070;2024-03-22T08:40:11;19.10;;;6.30;;
6513;SDS011;3290;47.716;9.070;2024-03-22T08:42:38;10.73;;;5.50;;
6513;SDS011;3290;47.716;9.070;2024-03-22T08:45:04;8.80;;;6.30;;
6513;SDS011;3290;47.716;9.070;2024-03-22T08:47:30;8.63;;;5.83;;
6513;SDS011;3290;47.716;9.070;2024-03-22T08:49:56;11.27;;;5.90;;
6513;SDS011;3290;47.716;9.070;2024-03-22T08:52:22;14.83;;;7.13;;
6513;SDS011;3290;47.716;9.070;2024-03-22T08:54:49;11.80;;;6.40;;
6513;SDS011;3290;47.716;9.070;2024-03-22T08:57:15;29.27;;;14.50;;
6513;SDS011;3290;47.716;9.070;2024-03-22T08:59:40;28.50;;;16.67;;
6513;SDS011;3290;47.716;9.070;2024-03-22T09:02:05;9.53;;;6.27;;
6513;SDS011;3290;47.716;9.070;2024-03-22T09:04:31;12.50;;;7.33;;
6513;SDS011;3290;47.716;9.070;2024-03-22T09:06:56;12.53;;;6.67;;
6513;SDS011;3290;47.716;9.070;2024-03-22T09:09:23;10.30;;;6.20;;
6513;SDS011;3290;47.716;9.070;2024-03-22T09:11:48;13.07;;;6.17;;
6513;SDS011;3290;47.716;9.070;2024-03-22T09:14:13;12.87;;;6.30;;
6513;SDS011;3290;47.716;9.070;2024-03-22T09:16:39;15.00;;;6.80;;
6513;SDS011;3290;47.716;9.070;2024-03-22T09:19:05;7.47;;;5.40;;
6513;SDS011;3290;47.716;9.070;2024-03-22T09:21:31;8.37;;;6.00;;
6513;SDS011;3290;47.716;9.070;2024-03-22T09:23:57;6.33;;;4.80;;
6513;SDS011;3290;47.716;9.070;2024-03-22T09:26:22;9.03;;;5.27;;
6513;SDS011;3290;47.716;9.070;2024-03-22T09:28:48;10.20;;;4.80;;
6513;SDS011;3290;47.716;9.070;2024-03-22T09:31:15;7.30;;;5.13;;
6513;SDS011;3290;47.716;9.070;2024-03-22T09:33:41;8.00;;;4.10;;
6513;SDS011;3290;47.716;9.070;2024-03-22T09:36:07;4.63;;;3.90;;
6513;SDS011;3290;47.716;9.070;2024-03-22T09:38:33;6.57;;;4.83;;
6513;SDS011;3290;47.716;9.070;2024-03-22T09:40:58;9.80;;;4.70;;
6513;SDS011;3290;47.716;9.070;2024-03-22T09:43:23;9.40;;;4.63;;
6513;SDS011;3290;47.716;9.070;2024-03-22T09:45:52;5.90;;;4.33;;
6513;SDS011;3290;47.716;9.070;2024-03-22T09:48:18;10.53;;;4.40;;
6513;SDS011;3290;47.716;9.070;2024-03-22T09:50:47;5.50;;;3.23;;
6513;SDS011;3290;47.716;9.070;2024-03-22T09:53:13;6.30;;;4.47;;
6513;SDS011;3290;47.716;9.070;2024-03-22T09:55:42;8.33;;;4.60;;
6513;SDS011;3290;47.716;9.070;2024-03-22T09:58:10;7.40;;;4.97;;
6513;SDS011;3290;47.716;9.070;2024-03-22T10:00:35;5.33;;;4.27;;
6513;SDS011;3290;47.716;9.070;2024-03-22T10:03:01;6.77;;;4.40;;
6513;SDS011;3290;47.716;9.070;2024-03-22T10:05:29;7.37;;;4.73;;
6513;SDS011;3290;47.716;9.070;2024-03-22T10:07:54;11.47;;;5.10;;
6513;SDS011;3290;47.716;9.070;2024-03-22T10:10:20;8.17;;;3.90;;
6513;SDS011;3290;47.716;9.070;2024-03-22T10:12:46;7.30;;;5.13;;
6513;SDS011;3290;47.716;9.070;2024-03-22T10:15:11;8.37;;;4.50;;
6513;SDS011;3290;47.716;9.070;2024-03-22T10:17:37;6.07;;;4.40;;
6513;SDS011;3290;47.716;9.070;2024-03-22T10:20:04;6.80;;;4.13;;
6513;SDS011;3290;47.716;9.070;2024-03-22T10:22:34;7.73;;;4.57;;
6513;SDS011;3290;47.716;9.070;2024-03-22T10:25:00;6.63;;;4.30;;
6513;SDS011;3290;47.716;9.070;2024-03-22T10:27:26;4.83;;;3.63;;
6513;SDS011;3290;47.716;9.070;2024-03-22T10:29:54;8.73;;;4.47;;
6513;SDS011;3290;47.716;9.070;2024-03-22T10:32:19;5.10;;;4.17;;
6513;SDS011;3290;47.716;9.070;2024-03-22T10:34:46;10.50;;;3.60;;
6513;SDS011;3290;47.716;9.070;2024-03-22T10:37:12;7.60;;;3.87;;
6513;SDS011;3290;47.716;9.070;2024-03-22T10:39:40;5.80;;;3.70;;
6513;SDS011;3290;47.716;9.070;2024-03-22T10:42:07;13.40;;;3.40;;
6513;SDS011;3290;47.716;9.070;2024-03-22T10:44:33;4.80;;;3.40;;
6513;SDS011;3290;47.716;9.070;2024-03-22T10:46:59;6.97;;;3.67;;
6513;SDS011;3290;47.716;9.070;2024-03-22T10:49:26;3.70;;;2.97;;
6513;SDS011;3290;47.716;9.070;2024-03-22T10:51:57;3.50;;;2.80;;
6513;SDS011;3290;47.716;9.070;2024-03-22T10:54:27;6.90;;;3.50;;
6513;SDS011;3290;47.716;9.070;2024-03-22T10:57:01;4.57;;;3.20;;
6513;SDS011;3290;47.716;9.070;2024-03-22T10:59:27;3.90;;;2.93;;
6513;SDS011;3290;47.716;9.070;2024-03-22T11:02:02;5.10;;;3.67;;
6513;SDS011;3290;47.716;9.070;2024-03-22T11:04:29;4.73;;;3.20;;
6513;SDS011;3290;47.716;9.070;2024-03-22T11:06:56;5.20;;;2.63;;
6513;SDS011;3290;47.716;9.070;2024-03-22T11:09:25;4.77;;;2.63;;
6513;SDS011;3290;47.716;9.070;2024-03-22T11:11:52;4.63;;;2.97;;
6513;SDS011;3290;47.716;9.070;2024-03-22T11:14:19;4.63;;;3.10;;
6513;SDS011;3290;47.716;9.070;2024-03-22T11:16:45;3.60;;;2.70;;
6513;SDS011;3290;47.716;9.070;2024-03-22T11:19:11;3.40;;;2.63;;
6513;SDS011;3290;47.716;9.070;2024-03-22T11:21:37;3.10;;;2.60;;
6513;SDS011;3290;47.716;9.070;2024-03-22T11:24:03;4.40;;;2.67;;
6513;SDS011;3290;47.716;9.070;2024-03-22T11:26:29;3.30;;;2.23;;
6513;SDS011;3290;47.716;9.070;2024-03-22T11:28:54;3.70;;;2.40;;
6513;SDS011;3290;47.716;9.070;2024-03-22T11:31:19;4.57;;;2.90;;
6513;SDS011;3290;47.716;9.070;2024-03-22T11:33:50;2.37;;;2.13;;
6513;SDS011;3290;47.716;9.070;2024-03-22T11:36:17;3.23;;;2.77;;
6513;SDS011;3290;47.716;9.070;2024-03-22T11:38:42;4.23;;;2.80;;
6513;SDS011;3290;47.716;9.070;2024-03-22T11:41:08;4.43;;;2.40;;
6513;SDS011;3290;47.716;9.070;2024-03-22T11:43:34;3.20;;;2.00;;
6513;SDS011;3290;47.716;9.070;2024-03-22T11:45:59;3.10;;;2.27;;
6513;SDS011;3290;47.716;9.070;2024-03-22T11:48:26;5.53;;;2.30;;
6513;SDS011;3290;47.716;9.070;2024-03-22T11:50:52;4.73;;;2.17;;
6513;SDS011;3290;47.716;9.070;2024-03-22T11:53:17;3.30;;;2.27;;
6513;SDS011;3290;47.716;9.070;2024-03-22T11:55:43;3.63;;;2.17;;
6513;SDS011;3290;47.716;9.070;2024-03-22T11:58:11;4.17;;;2.37;;
6513;SDS011;3290;47.716;9.070;2024-03-22T12:00:37;5.43;;;2.50;;
6513;SDS011;3290;47.716;9.070;2024-03-22T12:03:03;4.10;;;2.43;;
6513;SDS011;3290;47.716;9.070;2024-03-22T12:05:30;4.53;;;1.90;;
6513;SDS011;3290;47.716;9.070;2024-03-22T12:07:56;2.80;;;2.40;;
6513;SDS011;3290;47.716;9.070;2024-03-22T12:10:21;2.23;;;2.03;;
6513;SDS011;3290;47.716;9.070;2024-03-22T12:12:47;6.80;;;1.93;;
6513;SDS011;3290;47.716;9.070;2024-03-22T12:15:12;3.40;;;2.20;;
6513;SDS011;3290;47.716;9.070;2024-03-22T12:17:37;1.83;;;1.73;;
6513;SDS011;3290;47.716;9.070;2024-03-22T12:20:05;3.23;;;1.93;;
6513;SDS011;3290;47.716;9.070;2024-03-22T12:22:33;2.70;;;2.10;;
6513;SDS011;3290;47.716;9.070;2024-03-22T12:24:59;2.20;;;1.70;;
6513;SDS011;3290;47.716;9.070;2024-03-22T12:27:24;5.13;;;2.13;;
6513;SDS011;3290;47.716;9.070;2024-03-22T12:29:49;5.60;;;1.60;;
6513;SDS011;3290;47.716;9.070;2024-03-22T12:32:15;3.40;;;1.73;;
6513;SDS011;3290;47.716;9.070;2024-03-22T12:34:40;3.37;;;2.10;;
6513;SDS011;3290;47.716;9.070;2024-03-22T12:37:06;2.40;;;1.83;;
6513;SDS011;3290;47.716;9.070;2024-03-22T12:39:32;7.30;;;1.77;;
6513;SDS011;3290;47.716;9.070;2024-03-22T12:41:57;2.83;;;1.87;;
6513;SDS011;3290;47.716;9.070;2024-03-22T12:44:23;5.00;;;1.80;;
6513;SDS011;3290;47.716;9.070;2024-03-22T12:46:48;7.70;;;1.70;;
6513;SDS011;3290;47.716;9.070;2024-03-22T12:49:16;6.93;;;2.13;;
6513;SDS011;3290;47.716;9.070;2024-03-22T12:51:41;6.90;;;2.20;;
6513;SDS011;3290;47.716;9.070;2024-03-22T12:54:07;3.40;;;1.83;;
6513;SDS011;3290;47.716;9.070;2024-03-22T12:56:32;2.07;;;1.63;;
6513;SDS011;3290;47.716;9.070;2024-03-22T12:58:58;2.50;;;1.73;;
6513;SDS011;3290;47.716;9.070;2024-03-22T13:01:24;1.73;;;1.57;;
6513;SDS011;3290;47.716;9.070;2024-03-22T13:03:49;4.97;;;1.63;;
6513;SDS011;3290;47.716;9.070;2024-03-22T13:06:14;1.40;;;1.30;;
6513;SDS011;3290;47.716;9.070;2024-03-22T13:08:40;3.77;;;2.17;;
6513;SDS011;3290;47.716;9.070;2024-03-22T13:11:05;4.13;;;1.87;;
6513;SDS011;3290;47.716;9.070;2024-03-22T13:13:34;1.57;;;1.40;;
6513;SDS011;3290;47.716;9.070;2024-03-22T13:15:59;2.60;;;1.30;;
6513;SDS011;3290;47.716;9.070;2024-03-22T13:18:27;4.13;;;1.53;;
6513;SDS011;3290;47.716;9.070;2024-03-22T13:20:53;1.87;;;1.30;;
6513;SDS011;3290;47.716;9.070;2024-03-22T13:23:18;6.93;;;1.90;;
6513;SDS011;3290;47.716;9.070;2024-03-22T13:25:43;4.60;;;1.60;;
6513;SDS011;3290;47.716;9.070;2024-03-22T13:28:09;2.20;;;1.50;;
6513;SDS011;3290;47.716;9.070;2024-03-22T13:30:34;3.43;;;1.37;;
6513;SDS011;3290;47.716;9.070;2024-03-22T13:33:02;2.10;;;1.17;;
6513;SDS011;3290;47.716;9.070;2024-03-22T13:35:28;1.97;;;1.50;;
6513;SDS011;3290;47.716;9.070;2024-03-22T13:37:53;4.07;;;1.53;;
6513;SDS011;3290;47.716;9.070;2024-03-22T13:40:18;2.50;;;1.67;;
6513;SDS011;3290;47.716;9.070;2024-03-22T13:42:44;3.30;;;1.33;;
6513;SDS011;3290;47.716;9.070;2024-03-22T13:45:10;3.47;;;1.50;;
6513;SDS011;3290;47.716;9.070;2024-03-22T13:47:35;2.83;;;1.40;;
6513;SDS011;3290;47.716;9.070;2024-03-22T13:50:05;9.63;;;1.37;;
6513;SDS011;3290;47.716;9.070;2024-03-22T13:52:33;3.97;;;1.50;;
6513;SDS011;3290;47.716;9.070;2024-03-22T13:54:59;2.00;;;1.53;;
6513;SDS011;3290;47.716;9.070;2024-03-22T13:57:26;1.27;;;1.17;;
6513;SDS011;3290;47.716;9.070;2024-03-22T13:59:51;2.47;;;1.20;;
6513;SDS011;3290;47.716;9.070;2024-03-22T14:02:17;2.37;;;1.47;;
6513;SDS011;3290;47.716;9.070;2024-03-22T14:04:42;3.23;;;1.30;;
6513;SDS011;3290;47.716;9.070;2024-03-22T14:07:07;1.80;;;1.10;;
6513;SDS011;3290;47.716;9.070;2024-03-22T14:09:34;1.23;;;1.13;;
6513;SDS011;3290;47.716;9.070;2024-03-22T14:12:00;2.03;;;1.20;;
6513;SDS011;3290;47.716;9.070;2024-03-22T14:14:28;1.93;;;1.10;;
6513;SDS011;3290;47.716;9.070;2024-03-22T14:16:54;1.77;;;1.20;;
6513;SDS011;3290;47.716;9.070;2024-03-22T14:19:20;1.83;;;1.40;;
6513;SDS011;3290;47.716;9.070;2024-03-22T14:21:45;3.63;;;1.50;;
6513;SDS011;3290;47.716;9.070;2024-03-22T14:24:11;2.33;;;1.20;;
6513;SDS011;3290;47.716;9.070;2024-03-22T14:26:37;4.27;;;1.33;;
6513;SDS011;3290;47.716;9.070;2024-03-22T14:29:07;1.73;;;1.30;;
6513;SDS011;3290;47.716;9.070;2024-03-22T14:31:35;2.30;;;1.23;;
6513;SDS011;3290;47.716;9.070;2024-03-22T14:34:01;1.60;;;1.50;;
6513;SDS011;3290;47.716;9.070;2024-03-22T14:36:27;1.70;;;1.37;;
6513;SDS011;3290;47.716;9.070;2024-03-22T14:38:52;1.50;;;1.30;;
6513;SDS011;3290;47.716;9.070;2024-03-22T14:41:17;1.47;;;1.20;;
6513;SDS011;3290;47.716;9.070;2024-03-22T14:43:43;2.17;;;1.23;;
6513;SDS011;3290;47.716;9.070;2024-03-22T14:46:08;1.53;;;1.10;;
6513;SDS011;3290;47.716;9.070;2024-03-22T14:48:34;2.40;;;1.20;;
6513;SDS011;3290;47.716;9.070;2024-03-22T14:50:59;2.43;;;1.40;;
6513;SDS011;3290;47.716;9.070;2024-03-22T14:53:24;2.03;;;1.30;;
6513;SDS011;3290;47.716;9.070;2024-03-22T14:55:53;2.07;;;1.20;;
6513;SDS011;3290;47.716;9.070;2024-03-22T14:58:33;2.47;;;1.23;;
6513;SDS011;3290;47.716;9.070;2024-03-22T15:01:00;1.60;;;1.50;;
6513;SDS011;3290;47.716;9.070;2024-03-22T15:03:27;1.20;;;1.10;;
6513;SDS011;3290;47.716;9.070;2024-03-22T15:05:53;1.37;;;1.27;;